sensor_id;sensor_type;location;lat;lon;timestamp;P1;durP1;ratioP1;P2;durP2;ratioP2
42846;SDS011;28495;49.916;14.536;2022-09-20T00:02:03;4.78;;;1.25;;
42846;SDS011;28495;49.916;14.536;2022-09-20T00:07:24;2.88;;;0.75;;
42846;SDS011;28495;49.916;14.536;2022-09-20T00:12:44;2.58;;;0.70;;
42846;SDS011;28495;49.916;14.536;2022-09-20T00:18:05;0.85;;;0.75;;
42846;SDS011;28495;49.916;14.536;2022-09-20T00:23:25;2.50;;;1.40;;
42846;SDS011;28495;49.916;14.536;2022-09-20T00:28:46;1.15;;;1.10;;
42846;SDS011;28495;49.916;14.536;2022-09-20T00:34:07;1.02;;;0.70;;
42846;SDS011;28495;49.916;14.536;2022-09-20T00:39:47;0.50;;;0.47;;
42846;SDS011;28495;49.916;14.536;2022-09-20T00:50:46;1.02;;;0.60;;
42846;SDS011;28495;49.916;14.536;2022-09-20T00:56:12;1.85;;;1.08;;
42846;SDS011;28495;49.916;14.536;2022-09-20T01:01:40;1.20;;;1.10;;
42846;SDS011;28495;49.916;14.536;2022-09-20T01:07:04;0.52;;;0.40;;
42846;SDS011;28495;49.916;14.536;2022-09-20T01:12:28;0.50;;;0.50;;
42846;SDS011;28495;49.916;14.536;2022-09-20T01:17:51;2.17;;;0.50;;
42846;SDS011;28495;49.916;14.536;2022-09-20T01:28:43;1.10;;;0.50;;
42846;SDS011;28495;49.916;14.536;2022-09-20T01:34:09;1.55;;;0.75;;
42846;SDS011;28495;49.916;14.536;2022-09-20T01:45:20;1.10;;;0.50;;
42846;SDS011;28495;49.916;14.536;2022-09-20T02:02:06;2.25;;;0.55;;
42846;SDS011;28495;49.916;14.536;2022-09-20T02:36:02;1.00;;;0.90;;
42846;SDS011;28495;49.916;14.536;2022-09-20T02:41:40;0.80;;;0.70;;
42846;SDS011;28495;49.916;14.536;2022-09-20T02:47:20;1.02;;;0.70;;
42846;SDS011;28495;49.916;14.536;2022-09-20T03:04:19;0.98;;;0.77;;
42846;SDS011;28495;49.916;14.536;2022-09-20T03:21:15;2.22;;;1.00;;
42846;SDS011;28495;49.916;14.536;2022-09-20T03:26:55;1.63;;;1.02;;
42846;SDS011;28495;49.916;14.536;2022-09-20T03:49:24;2.00;;;0.70;;
42846;SDS011;28495;49.916;14.536;2022-09-20T04:01:18;4.00;;;0.73;;
42846;SDS011;28495;49.916;14.536;2022-09-20T04:18:50;1.73;;;0.47;;
42846;SDS011;28495;49.916;14.536;2022-09-20T04:29:50;1.88;;;0.50;;
42846;SDS011;28495;49.916;14.536;2022-09-20T05:10:08;4.10;;;0.70;;
42846;SDS011;28495;49.916;14.536;2022-09-20T05:15:53;1.05;;;0.68;;
42846;SDS011;28495;49.916;14.536;2022-09-20T05:38:45;3.70;;;1.35;;
42846;SDS011;28495;49.916;14.536;2022-09-20T05:50:23;5.85;;;2.45;;
42846;SDS011;28495;49.916;14.536;2022-09-20T05:55:50;1.27;;;0.82;;
42846;SDS011;28495;49.916;14.536;2022-09-20T06:30:14;1.83;;;0.70;;
42846;SDS011;28495;49.916;14.536;2022-09-20T06:35:40;1.13;;;0.50;;
42846;SDS011;28495;49.916;14.536;2022-09-20T06:41:06;1.80;;;1.17;;
42846;SDS011;28495;49.916;14.536;2022-09-20T06:46:48;4.47;;;1.95;;
42846;SDS011;28495;49.916;14.536;2022-09-20T06:52:13;3.38;;;0.77;;
42846;SDS011;28495;49.916;14.536;2022-09-20T06:57:36;1.23;;;0.90;;
42846;SDS011;28495;49.916;14.536;2022-09-20T07:02:57;4.45;;;2.30;;
42846;SDS011;28495;49.916;14.536;2022-09-20T07:08:18;3.53;;;0.80;;
42846;SDS011;28495;49.916;14.536;2022-09-20T07:13:38;2.20;;;1.27;;
42846;SDS011;28495;49.916;14.536;2022-09-20T07:18:59;1.08;;;0.88;;
42846;SDS011;28495;49.916;14.536;2022-09-20T07:24:19;1.85;;;1.40;;
42846;SDS011;28495;49.916;14.536;2022-09-20T07:29:40;0.75;;;0.63;;
42846;SDS011;28495;49.916;14.536;2022-09-20T07:35:01;1.23;;;0.85;;
42846;SDS011;28495;49.916;14.536;2022-09-20T07:40:22;4.65;;;2.38;;
42846;SDS011;28495;49.916;14.536;2022-09-20T07:45:43;6.50;;;3.15;;
42846;SDS011;28495;49.916;14.536;2022-09-20T07:51:05;3.33;;;1.42;;
42846;SDS011;28495;49.916;14.536;2022-09-20T07:56:28;4.53;;;2.33;;
42846;SDS011;28495;49.916;14.536;2022-09-20T08:01:49;3.80;;;1.20;;
42846;SDS011;28495;49.916;14.536;2022-09-20T08:07:09;1.90;;;1.17;;
42846;SDS011;28495;49.916;14.536;2022-09-20T08:12:32;3.53;;;1.25;;
42846;SDS011;28495;49.916;14.536;2022-09-20T08:18:13;2.00;;;0.90;;
42846;SDS011;28495;49.916;14.536;2022-09-20T08:23:37;1.40;;;1.13;;
42846;SDS011;28495;49.916;14.536;2022-09-20T08:29:00;2.67;;;1.77;;
42846;SDS011;28495;49.916;14.536;2022-09-20T08:34:21;5.03;;;2.67;;
42846;SDS011;28495;49.916;14.536;2022-09-20T08:39:41;1.77;;;1.23;;
42846;SDS011;28495;49.916;14.536;2022-09-20T08:45:20;3.60;;;1.00;;
42846;SDS011;28495;49.916;14.536;2022-09-20T08:50:53;5.40;;;2.70;;
42846;SDS011;28495;49.916;14.536;2022-09-20T08:56:14;2.50;;;1.20;;
42846;SDS011;28495;49.916;14.536;2022-09-20T09:01:35;3.70;;;1.50;;
42846;SDS011;28495;49.916;14.536;2022-09-20T09:06:56;2.40;;;1.20;;
42846;SDS011;28495;49.916;14.536;2022-09-20T09:12:25;2.05;;;0.82;;
42846;SDS011;28495;49.916;14.536;2022-09-20T09:17:48;1.70;;;0.93;;
42846;SDS011;28495;49.916;14.536;2022-09-20T09:23:10;3.92;;;1.13;;
42846;SDS011;28495;49.916;14.536;2022-09-20T09:28:44;3.00;;;0.77;;
42846;SDS011;28495;49.916;14.536;2022-09-20T09:34:16;1.83;;;1.02;;
42846;SDS011;28495;49.916;14.536;2022-09-20T09:39:42;4.45;;;1.10;;
42846;SDS011;28495;49.916;14.536;2022-09-20T09:45:12;2.28;;;1.17;;
42846;SDS011;28495;49.916;14.536;2022-09-20T09:50:48;1.63;;;0.95;;
42846;SDS011;28495;49.916;14.536;2022-09-20T10:13:48;1.95;;;0.90;;
42846;SDS011;28495;49.916;14.536;2022-09-20T10:24:43;2.42;;;1.15;;
42846;SDS011;28495;49.916;14.536;2022-09-20T10:30:46;2.78;;;0.93;;
42846;SDS011;28495;49.916;14.536;2022-09-20T10:36:56;1.55;;;0.77;;
42846;SDS011;28495;49.916;14.536;2022-09-20T10:48:04;1.95;;;0.80;;
42846;SDS011;28495;49.916;14.536;2022-09-20T11:04:46;1.70;;;0.90;;
42846;SDS011;28495;49.916;14.536;2022-09-20T11:10:17;1.42;;;0.85;;
42846;SDS011;28495;49.916;14.536;2022-09-20T11:15:57;3.13;;;0.70;;
42846;SDS011;28495;49.916;14.536;2022-09-20T11:21:47;1.90;;;1.50;;
42846;SDS011;28495;49.916;14.536;2022-09-20T11:27:30;0.95;;;0.52;;
42846;SDS011;28495;49.916;14.536;2022-09-20T11:44:16;1.13;;;0.55;;
42846;SDS011;28495;49.916;14.536;2022-09-20T11:49:45;0.82;;;0.55;;
42846;SDS011;28495;49.916;14.536;2022-09-20T11:55:33;1.90;;;0.63;;
42846;SDS011;28495;49.916;14.536;2022-09-20T12:01:41;1.33;;;0.50;;
42846;SDS011;28495;49.916;14.536;2022-09-20T12:07:04;5.85;;;0.88;;
42846;SDS011;28495;49.916;14.536;2022-09-20T12:12:38;2.67;;;1.10;;
42846;SDS011;28495;49.916;14.536;2022-09-20T12:18:05;2.25;;;1.13;;
42846;SDS011;28495;49.916;14.536;2022-09-20T12:29:00;1.38;;;0.77;;
42846;SDS011;28495;49.916;14.536;2022-09-20T12:34:40;1.33;;;0.70;;
42846;SDS011;28495;49.916;14.536;2022-09-20T12:40:01;2.50;;;1.40;;
42846;SDS011;28495;49.916;14.536;2022-09-20T12:45:22;2.78;;;0.90;;
42846;SDS011;28495;49.916;14.536;2022-09-20T12:50:55;1.48;;;0.80;;
42846;SDS011;28495;49.916;14.536;2022-09-20T12:56:39;3.05;;;0.90;;
42846;SDS011;28495;49.916;14.536;2022-09-20T13:08:08;0.70;;;0.50;;
42846;SDS011;28495;49.916;14.536;2022-09-20T13:19:34;1.60;;;0.60;;
42846;SDS011;28495;49.916;14.536;2022-09-20T13:25:01;1.80;;;0.60;;
42846;SDS011;28495;49.916;14.536;2022-09-20T13:30:26;0.35;;;0.30;;
42846;SDS011;28495;49.916;14.536;2022-09-20T13:35:52;0.47;;;0.30;;
42846;SDS011;28495;49.916;14.536;2022-09-20T13:41:16;1.02;;;0.50;;
42846;SDS011;28495;49.916;14.536;2022-09-20T13:46:41;1.52;;;0.38;;
42846;SDS011;28495;49.916;14.536;2022-09-20T13:52:11;1.00;;;0.63;;
42846;SDS011;28495;49.916;14.536;2022-09-20T13:57:41;1.23;;;0.63;;
42846;SDS011;28495;49.916;14.536;2022-09-20T14:03:04;0.70;;;0.50;;
42846;SDS011;28495;49.916;14.536;2022-09-20T14:08:36;2.67;;;0.68;;
42846;SDS011;28495;49.916;14.536;2022-09-20T14:14:00;1.33;;;0.70;;
42846;SDS011;28495;49.916;14.536;2022-09-20T14:19:26;3.85;;;0.85;;
42846;SDS011;28495;49.916;14.536;2022-09-20T14:24:55;1.65;;;0.68;;
42846;SDS011;28495;49.916;14.536;2022-09-20T14:30:28;1.33;;;0.90;;
42846;SDS011;28495;49.916;14.536;2022-09-20T14:35:51;2.22;;;0.60;;
42846;SDS011;28495;49.916;14.536;2022-09-20T14:41:12;1.92;;;0.90;;
42846;SDS011;28495;49.916;14.536;2022-09-20T14:46:34;0.85;;;0.85;;
42846;SDS011;28495;49.916;14.536;2022-09-20T14:57:47;2.80;;;1.30;;
42846;SDS011;28495;49.916;14.536;2022-09-20T15:03:09;2.13;;;1.08;;
42846;SDS011;28495;49.916;14.536;2022-09-20T15:08:35;5.45;;;1.60;;
42846;SDS011;28495;49.916;14.536;2022-09-20T15:13:56;3.22;;;2.53;;
42846;SDS011;28495;49.916;14.536;2022-09-20T15:19:17;3.58;;;2.22;;
42846;SDS011;28495;49.916;14.536;2022-09-20T15:24:38;3.30;;;2.10;;
42846;SDS011;28495;49.916;14.536;2022-09-20T15:29:59;3.83;;;2.42;;
42846;SDS011;28495;49.916;14.536;2022-09-20T15:35:19;3.67;;;2.00;;
42846;SDS011;28495;49.916;14.536;2022-09-20T15:40:41;6.68;;;2.00;;
42846;SDS011;28495;49.916;14.536;2022-09-20T15:46:19;3.70;;;2.00;;
42846;SDS011;28495;49.916;14.536;2022-09-20T15:51:42;3.63;;;1.85;;
42846;SDS011;28495;49.916;14.536;2022-09-20T15:57:02;4.28;;;2.42;;
42846;SDS011;28495;49.916;14.536;2022-09-20T16:02:24;1.98;;;0.90;;
42846;SDS011;28495;49.916;14.536;2022-09-20T16:07:45;1.90;;;1.30;;
42846;SDS011;28495;49.916;14.536;2022-09-20T16:13:06;1.30;;;0.88;;
42846;SDS011;28495;49.916;14.536;2022-09-20T16:18:27;1.40;;;0.68;;
42846;SDS011;28495;49.916;14.536;2022-09-20T16:24:08;3.67;;;1.67;;
42846;SDS011;28495;49.916;14.536;2022-09-20T16:29:30;0.75;;;0.68;;
42846;SDS011;28495;49.916;14.536;2022-09-20T16:34:51;2.40;;;2.20;;
42846;SDS011;28495;49.916;14.536;2022-09-20T16:40:14;1.50;;;1.33;;
42846;SDS011;28495;49.916;14.536;2022-09-20T16:45:35;0.95;;;0.45;;
42846;SDS011;28495;49.916;14.536;2022-09-20T16:50:56;1.55;;;0.60;;
42846;SDS011;28495;49.916;14.536;2022-09-20T16:56:21;0.30;;;0.30;;
42846;SDS011;28495;49.916;14.536;2022-09-20T17:01:43;0.50;;;0.40;;
42846;SDS011;28495;49.916;14.536;2022-09-20T17:07:04;3.10;;;0.47;;
42846;SDS011;28495;49.916;14.536;2022-09-20T17:12:26;2.47;;;0.38;;
42846;SDS011;28495;49.916;14.536;2022-09-20T17:17:52;0.43;;;0.43;;
42846;SDS011;28495;49.916;14.536;2022-09-20T17:23:13;2.92;;;0.68;;
42846;SDS011;28495;49.916;14.536;2022-09-20T17:28:35;2.05;;;0.70;;
42846;SDS011;28495;49.916;14.536;2022-09-20T17:33:57;1.25;;;1.00;;
42846;SDS011;28495;49.916;14.536;2022-09-20T17:39:22;4.93;;;1.98;;
42846;SDS011;28495;49.916;14.536;2022-09-20T17:44:43;2.55;;;2.00;;
42846;SDS011;28495;49.916;14.536;2022-09-20T17:50:04;4.53;;;2.22;;
42846;SDS011;28495;49.916;14.536;2022-09-20T17:55:25;2.75;;;2.00;;
42846;SDS011;28495;49.916;14.536;2022-09-20T18:00:48;2.38;;;2.05;;
42846;SDS011;28495;49.916;14.536;2022-09-20T18:06:17;2.47;;;2.08;;
42846;SDS011;28495;49.916;14.536;2022-09-20T18:11:43;3.03;;;2.00;;
42846;SDS011;28495;49.916;14.536;2022-09-20T18:17:08;4.43;;;3.33;;
42846;SDS011;28495;49.916;14.536;2022-09-20T18:22:30;5.05;;;3.33;;
42846;SDS011;28495;49.916;14.536;2022-09-20T18:27:51;2.63;;;1.90;;
42846;SDS011;28495;49.916;14.536;2022-09-20T18:33:14;2.40;;;2.05;;
42846;SDS011;28495;49.916;14.536;2022-09-20T18:38:36;4.15;;;2.10;;
42846;SDS011;28495;49.916;14.536;2022-09-20T18:43:56;4.00;;;2.38;;
42846;SDS011;28495;49.916;14.536;2022-09-20T18:49:20;4.72;;;2.55;;
42846;SDS011;28495;49.916;14.536;2022-09-20T18:54:41;3.08;;;2.10;;
42846;SDS011;28495;49.916;14.536;2022-09-20T19:00:02;2.15;;;1.67;;
42846;SDS011;28495;49.916;14.536;2022-09-20T19:11:23;2.70;;;2.05;;
42846;SDS011;28495;49.916;14.536;2022-09-20T19:16:53;1.45;;;1.20;;
42846;SDS011;28495;49.916;14.536;2022-09-20T19:28:04;2.35;;;1.10;;
42846;SDS011;28495;49.916;14.536;2022-09-20T19:33:29;1.90;;;1.52;;
42846;SDS011;28495;49.916;14.536;2022-09-20T19:39:06;1.40;;;1.20;;
42846;SDS011;28495;49.916;14.536;2022-09-20T19:50:06;1.98;;;1.30;;
42846;SDS011;28495;49.916;14.536;2022-09-20T19:55:36;1.30;;;1.17;;
42846;SDS011;28495;49.916;14.536;2022-09-20T20:01:21;1.58;;;1.10;;
42846;SDS011;28495;49.916;14.536;2022-09-20T20:12:38;1.40;;;1.05;;
42846;SDS011;28495;49.916;14.536;2022-09-20T20:18:18;3.55;;;1.10;;
42846;SDS011;28495;49.916;14.536;2022-09-20T20:29:45;4.70;;;1.55;;
42846;SDS011;28495;49.916;14.536;2022-09-20T20:35:06;4.28;;;2.08;;
42846;SDS011;28495;49.916;14.536;2022-09-20T20:40:28;4.32;;;1.70;;
42846;SDS011;28495;49.916;14.536;2022-09-20T20:45:49;4.10;;;2.22;;
42846;SDS011;28495;49.916;14.536;2022-09-20T20:51:10;8.45;;;3.30;;
42846;SDS011;28495;49.916;14.536;2022-09-20T20:56:33;6.32;;;4.40;;
42846;SDS011;28495;49.916;14.536;2022-09-20T21:01:54;5.05;;;2.80;;
42846;SDS011;28495;49.916;14.536;2022-09-20T21:07:15;4.13;;;2.53;;
42846;SDS011;28495;49.916;14.536;2022-09-20T21:12:37;2.88;;;2.55;;
42846;SDS011;28495;49.916;14.536;2022-09-20T21:17:57;9.57;;;4.45;;
42846;SDS011;28495;49.916;14.536;2022-09-20T21:23:18;13.63;;;6.18;;
42846;SDS011;28495;49.916;14.536;2022-09-20T21:28:40;7.57;;;4.35;;
42846;SDS011;28495;49.916;14.536;2022-09-20T21:34:04;11.48;;;6.05;;
42846;SDS011;28495;49.916;14.536;2022-09-20T21:39:25;7.72;;;4.70;;
42846;SDS011;28495;49.916;14.536;2022-09-20T21:44:46;6.10;;;2.55;;
42846;SDS011;28495;49.916;14.536;2022-09-20T21:50:07;4.47;;;2.38;;
42846;SDS011;28495;49.916;14.536;2022-09-20T21:55:28;3.97;;;2.63;;
42846;SDS011;28495;49.916;14.536;2022-09-20T22:06:17;5.10;;;2.10;;
42846;SDS011;28495;49.916;14.536;2022-09-20T22:11:40;5.82;;;2.65;;
42846;SDS011;28495;49.916;14.536;2022-09-20T22:17:03;5.07;;;3.40;;
42846;SDS011;28495;49.916;14.536;2022-09-20T22:22:25;4.75;;;3.05;;
42846;SDS011;28495;49.916;14.536;2022-09-20T22:27:47;5.00;;;3.15;;
42846;SDS011;28495;49.916;14.536;2022-09-20T22:33:07;4.57;;;2.67;;
42846;SDS011;28495;49.916;14.536;2022-09-20T22:38:28;3.53;;;2.60;;
42846;SDS011;28495;49.916;14.536;2022-09-20T22:43:49;3.97;;;2.42;;
42846;SDS011;28495;49.916;14.536;2022-09-20T22:49:10;3.78;;;2.88;;
42846;SDS011;28495;49.916;14.536;2022-09-20T22:54:31;4.47;;;2.20;;
42846;SDS011;28495;49.916;14.536;2022-09-20T22:59:55;3.95;;;2.42;;
42846;SDS011;28495;49.916;14.536;2022-09-20T23:05:15;5.35;;;2.25;;
42846;SDS011;28495;49.916;14.536;2022-09-20T23:10:37;5.95;;;2.70;;
42846;SDS011;28495;49.916;14.536;2022-09-20T23:15:58;3.03;;;2.03;;
42846;SDS011;28495;49.916;14.536;2022-09-20T23:21:19;5.05;;;2.08;;
42846;SDS011;28495;49.916;14.536;2022-09-20T23:26:40;3.45;;;2.45;;
42846;SDS011;28495;49.916;14.536;2022-09-20T23:32:03;4.13;;;2.50;;
42846;SDS011;28495;49.916;14.536;2022-09-20T23:37:23;2.40;;;2.20;;
42846;SDS011;28495;49.916;14.536;2022-09-20T23:42:44;3.53;;;2.40;;
42846;SDS011;28495;49.916;14.536;2022-09-20T23:48:05;6.22;;;2.80;;
42846;SDS011;28495;49.916;14.536;2022-09-20T23:53:26;3.30;;;2.58;;
42846;SDS011;28495;49.916;14.536;2022-09-20T23:58:47;4.47;;;2.67;;
